createdAt,value
2018-03-25T00:01:45.049Z,0.01
2018-03-25T00:04:15.799Z,-0.07
2018-03-25T00:06:46.568Z,-0.21
2018-03-25T00:09:17.301Z,-0.18
2018-03-25T00:11:48.060Z,-0.22
2018-03-25T00:14:18.808Z,-0.31
2018-03-25T00:16:49.591Z,-0.24
2018-03-25T00:19:20.323Z,-0.44
2018-03-25T00:21:51.096Z,-0.38
2018-03-25T00:24:21.844Z,-0.35
2018-03-25T00:26:52.588Z,-0.41
2018-03-25T00:29:23.334Z,-0.40
2018-03-25T00:31:54.098Z,-0.49
2018-03-25T00:34:24.837Z,-0.42
2018-03-25T00:36:55.581Z,-0.51
2018-03-25T00:39:26.320Z,-0.56
2018-03-25T00:41:57.072Z,-0.64
2018-03-25T00:44:27.808Z,-0.62
2018-03-25T00:46:58.561Z,-0.57
2018-03-25T00:49:29.303Z,-0.44
2018-03-25T00:52:00.066Z,-0.50
2018-03-25T00:54:30.797Z,-0.44
2018-03-25T00:57:01.563Z,-0.48
2018-03-25T00:59:32.305Z,-0.50
2018-03-25T01:02:03.080Z,-0.55
2018-03-25T01:04:33.825Z,-0.57
2018-03-25T01:07:04.581Z,-0.55
2018-03-25T01:09:35.320Z,-0.54
2018-03-25T01:12:06.081Z,-0.54
2018-03-25T01:14:36.820Z,-0.58
2018-03-25T01:17:07.564Z,-0.63
2018-03-25T01:19:38.300Z,-0.67
2018-03-25T01:22:09.040Z,-0.62
2018-03-25T01:24:39.764Z,-0.61
2018-03-25T01:27:10.519Z,-0.68
2018-03-25T01:29:41.264Z,-0.79
2018-03-25T01:32:12.021Z,-0.90
2018-03-25T01:34:42.754Z,-0.99
2018-03-25T01:37:13.513Z,-0.96
2018-03-25T01:39:44.236Z,-0.99
2018-03-25T01:42:15.000Z,-0.90
2018-03-25T01:44:45.739Z,-0.87
2018-03-25T01:47:16.477Z,-0.99
2018-03-25T01:49:47.201Z,-1.04
2018-03-25T01:52:17.974Z,-1.09
2018-03-25T01:54:48.725Z,-1.19
2018-03-25T01:57:19.497Z,-1.15
2018-03-25T01:59:50.252Z,-1.11
2018-03-25T02:02:21.008Z,-1.22
2018-03-25T02:04:51.752Z,-1.21
2018-03-25T02:07:22.525Z,-1.24
2018-03-25T02:09:53.268Z,-1.33
2018-03-25T02:12:24.052Z,-1.34
2018-03-25T02:14:54.807Z,-1.36
2018-03-25T02:17:25.564Z,-1.28
2018-03-25T02:19:56.324Z,-1.32
2018-03-25T02:22:27.104Z,-1.28
2018-03-25T02:24:57.861Z,-1.34
2018-03-25T02:27:28.636Z,-1.33
2018-03-25T02:29:59.399Z,-1.24
2018-03-25T02:32:30.180Z,-1.34
2018-03-25T02:35:00.929Z,-1.34
2018-03-25T02:37:31.717Z,-1.29
2018-03-25T02:40:02.486Z,-1.35
2018-03-25T02:42:33.266Z,-1.34
2018-03-25T02:45:04.019Z,-1.43
2018-03-25T02:47:34.780Z,-1.48
2018-03-25T02:50:05.549Z,-1.55
2018-03-25T02:52:36.327Z,-1.53
2018-03-25T02:55:07.085Z,-1.46
2018-03-25T02:57:37.874Z,-1.51
2018-03-25T03:00:08.645Z,-1.48
2018-03-25T03:02:39.413Z,-1.55
2018-03-25T03:05:10.169Z,-1.50
2018-03-25T03:07:40.949Z,-1.45
2018-03-25T03:10:11.684Z,-1.47
2018-03-25T03:12:42.447Z,-1.42
2018-03-25T03:15:13.197Z,-1.39
2018-03-25T03:17:43.958Z,-1.47
2018-03-25T03:20:14.725Z,-1.45
2018-03-25T03:22:45.495Z,-1.44
2018-03-25T03:25:16.264Z,-1.49
2018-03-25T03:27:47.029Z,-1.52
2018-03-25T03:30:17.786Z,-1.52
2018-03-25T03:32:48.547Z,-1.53
2018-03-25T03:35:19.300Z,-1.62
2018-03-25T03:37:50.079Z,-1.67
2018-03-25T03:40:20.821Z,-1.66
2018-03-25T03:42:51.563Z,-1.62
2018-03-25T03:45:22.324Z,-1.60
2018-03-25T03:47:53.080Z,-1.73
2018-03-25T03:50:23.817Z,-1.73
2018-03-25T03:52:54.577Z,-1.76
2018-03-25T03:55:25.308Z,-1.70
2018-03-25T03:57:56.152Z,-1.72
2018-03-25T04:00:26.888Z,-1.73
2018-03-25T04:02:57.617Z,-1.76
2018-03-25T04:05:28.353Z,-1.79
2018-03-25T04:07:59.118Z,-1.77
2018-03-25T04:10:29.856Z,-1.90
2018-03-25T04:13:00.608Z,-1.86
2018-03-25T04:15:31.348Z,-1.96
2018-03-25T04:18:02.110Z,-2.01
2018-03-25T04:20:32.832Z,-1.99
2018-03-25T04:23:03.593Z,-2.08
2018-03-25T04:25:34.328Z,-1.90
2018-03-25T04:28:05.077Z,-1.87
2018-03-25T04:30:35.816Z,-1.91
2018-03-25T04:33:06.573Z,-1.84
2018-03-25T04:35:37.307Z,-1.88
2018-03-25T04:38:08.061Z,-1.85
2018-03-25T04:40:38.792Z,-1.89
2018-03-25T04:43:09.541Z,-1.96
2018-03-25T04:45:40.264Z,-1.93
2018-03-25T04:48:11.028Z,-1.79
2018-03-25T04:50:41.774Z,-1.85
2018-03-25T04:53:12.532Z,-1.86
2018-03-25T04:55:43.265Z,-1.85
2018-03-25T04:58:14.035Z,-1.91
2018-03-25T05:00:44.760Z,-2.05
2018-03-25T05:03:15.500Z,-2.01
2018-03-25T05:05:46.232Z,-2.05
2018-03-25T05:08:16.968Z,-2.08
2018-03-25T05:10:47.712Z,-2.17
2018-03-25T05:13:18.456Z,-2.19
2018-03-25T05:15:49.189Z,-2.20
2018-03-25T05:18:19.936Z,-2.17
2018-03-25T05:20:50.669Z,-2.17
2018-03-25T05:23:21.409Z,-2.14
2018-03-25T05:25:52.135Z,-2.18
2018-03-25T05:28:22.880Z,-2.17
2018-03-25T05:30:53.625Z,-2.04
2018-03-25T05:33:24.377Z,-1.97
2018-03-25T05:35:55.141Z,-1.77
2018-03-25T05:38:25.886Z,-1.67
2018-03-25T05:40:56.632Z,-1.54
2018-03-25T05:43:27.366Z,-1.41
2018-03-25T05:45:58.100Z,-1.38
2018-03-25T05:48:28.841Z,-1.30
2018-03-25T05:50:59.614Z,-1.14
2018-03-25T05:53:30.365Z,-1.06
2018-03-25T05:56:01.112Z,-1.02
2018-03-25T05:58:31.874Z,-0.94
2018-03-25T06:01:02.620Z,-0.81
2018-03-25T06:03:33.356Z,-0.80
2018-03-25T06:06:04.087Z,-0.77
2018-03-25T06:08:34.848Z,-0.73
2018-03-25T06:11:05.572Z,-0.54
2018-03-25T06:13:36.326Z,-0.49
2018-03-25T06:16:07.072Z,-0.45
2018-03-25T06:18:38.144Z,-0.35
2018-03-25T06:21:08.912Z,-0.42
2018-03-25T06:23:39.740Z,-0.42
2018-03-25T06:26:10.478Z,-0.38
2018-03-25T06:28:41.237Z,-0.43
2018-03-25T06:31:11.970Z,-0.33
2018-03-25T06:33:42.708Z,-0.23
2018-03-25T06:36:13.494Z,-0.17
2018-03-25T06:38:44.232Z,-0.11
2018-03-25T06:41:14.962Z,-0.02
2018-03-25T06:43:45.700Z,0.07
2018-03-25T06:46:16.440Z,0.13
2018-03-25T06:48:54.232Z,0.16
2018-03-25T06:51:25.001Z,0.26
2018-03-25T06:53:55.745Z,0.39
2018-03-25T06:56:26.488Z,0.50
2018-03-25T06:58:57.266Z,0.68
2018-03-25T07:01:27.992Z,0.83
2018-03-25T07:03:58.737Z,1.18
2018-03-25T07:06:29.465Z,2.40
2018-03-25T07:09:00.228Z,4.11
2018-03-25T07:11:30.959Z,5.58
2018-03-25T07:14:01.717Z,6.63
2018-03-25T07:16:32.461Z,7.10
2018-03-25T07:19:03.222Z,7.93
2018-03-25T07:21:34.010Z,9.11
2018-03-25T07:24:04.731Z,10.43
2018-03-25T07:26:35.468Z,10.51
2018-03-25T07:29:06.232Z,10.81
2018-03-25T07:31:36.972Z,10.89
2018-03-25T07:34:07.727Z,10.21
2018-03-25T07:36:38.468Z,10.58
2018-03-25T07:39:09.224Z,11.32
2018-03-25T07:41:39.964Z,11.83
2018-03-25T07:44:10.733Z,12.29
2018-03-25T07:46:41.513Z,11.90
2018-03-25T07:49:12.266Z,11.65
2018-03-25T07:51:43.036Z,12.60
2018-03-25T07:54:13.810Z,12.18
2018-03-25T07:56:44.597Z,10.93
2018-03-25T07:59:15.381Z,10.59
2018-03-25T08:01:46.174Z,11.44
2018-03-25T08:04:16.948Z,10.40
2018-03-25T08:20:09.286Z,9.66
2018-03-25T08:22:40.081Z,10.07
2018-03-25T08:25:10.888Z,10.08
2018-03-25T08:27:41.641Z,9.17
2018-03-25T08:30:12.408Z,8.54
2018-03-25T08:32:43.158Z,9.36
2018-03-25T08:35:13.917Z,9.87
2018-03-25T08:37:44.709Z,8.44
2018-03-25T08:40:15.507Z,8.34
2018-03-25T08:42:46.242Z,8.01
2018-03-25T08:45:17.048Z,8.74
2018-03-25T08:47:47.802Z,9.45
2018-03-25T08:50:18.601Z,9.98
2018-03-25T08:52:49.373Z,10.06
2018-03-25T08:55:20.206Z,10.11
2018-03-25T08:57:51.024Z,9.78
2018-03-25T09:00:21.777Z,10.24
2018-03-25T09:02:52.541Z,10.15
2018-03-25T09:05:23.330Z,10.15
2018-03-25T09:07:54.081Z,10.02
2018-03-25T09:10:24.861Z,10.04
2018-03-25T09:12:55.608Z,9.88
2018-03-25T09:15:26.368Z,8.52
2018-03-25T09:17:57.136Z,9.20
2018-03-25T09:20:27.903Z,9.44
2018-03-25T09:22:58.667Z,8.73
2018-03-25T09:25:29.441Z,8.59
2018-03-25T09:28:00.216Z,8.98
2018-03-25T09:30:30.967Z,9.57
2018-03-25T09:33:01.721Z,9.95
2018-03-25T09:35:32.497Z,10.28
2018-03-25T09:38:03.275Z,10.10
2018-03-25T09:40:34.020Z,9.93
2018-03-25T09:43:04.778Z,10.82
2018-03-25T09:45:35.515Z,11.13
2018-03-25T09:48:06.263Z,11.16
2018-03-25T09:50:37.042Z,10.58
2018-03-25T09:53:07.805Z,10.43
2018-03-25T09:55:38.590Z,10.91
2018-03-25T09:58:09.328Z,11.58
2018-03-25T10:00:40.100Z,11.77
2018-03-25T10:03:14.845Z,11.77
2018-03-25T10:05:45.609Z,11.89
2018-03-25T10:08:16.365Z,12.39
2018-03-25T10:10:47.769Z,12.33
2018-03-25T10:13:18.513Z,13.35
2018-03-25T10:15:56.113Z,13.40
2018-03-25T10:18:26.853Z,12.37
2018-03-25T10:20:57.636Z,12.75
2018-03-25T10:23:28.389Z,13.51
2018-03-25T10:25:59.156Z,13.42
2018-03-25T10:28:29.908Z,12.76
2018-03-25T10:31:00.672Z,12.48
2018-03-25T10:33:31.525Z,12.84
2018-03-25T10:36:02.312Z,13.29
2018-03-25T10:38:33.088Z,11.76
2018-03-25T10:41:03.872Z,11.19
2018-03-25T10:43:34.658Z,11.57
2018-03-25T10:46:05.391Z,12.05
2018-03-25T10:48:36.125Z,12.42
2018-03-25T10:51:06.900Z,11.91
2018-03-25T10:53:37.688Z,11.99
2018-03-25T10:56:08.473Z,11.96
2018-03-25T10:58:39.244Z,11.22
2018-03-25T11:01:10.008Z,11.48
2018-03-25T11:03:40.772Z,11.77
2018-03-25T11:06:11.533Z,11.89
2018-03-25T11:08:42.272Z,12.58
2018-03-25T11:11:13.033Z,13.66
2018-03-25T11:13:43.844Z,12.64
2018-03-25T11:16:14.600Z,12.58
2018-03-25T11:18:45.357Z,12.48
2018-03-25T11:21:16.135Z,12.21
2018-03-25T11:23:46.893Z,12.70
2018-03-25T11:26:17.657Z,13.16
2018-03-25T11:28:48.401Z,13.08
2018-03-25T11:31:19.221Z,13.28
2018-03-25T11:33:49.977Z,14.01
2018-03-25T11:36:20.789Z,13.20
2018-03-25T11:38:51.562Z,13.54
2018-03-25T11:41:22.329Z,13.20
2018-03-25T11:43:53.094Z,13.92
2018-03-25T11:46:23.861Z,13.45
2018-03-25T11:48:54.627Z,12.99
2018-03-25T11:51:25.389Z,12.92
2018-03-25T11:53:56.140Z,12.58
2018-03-25T11:56:26.941Z,13.30
2018-03-25T11:58:57.680Z,14.26
2018-03-25T12:01:28.461Z,13.80
2018-03-25T12:03:59.205Z,14.29
2018-03-25T12:06:29.985Z,14.85
2018-03-25T12:09:00.754Z,15.09
2018-03-25T12:11:31.527Z,14.22
2018-03-25T12:14:02.322Z,14.22
2018-03-25T12:16:33.081Z,13.83
2018-03-25T12:19:03.822Z,13.88
2018-03-25T12:21:34.585Z,13.87
2018-03-25T12:24:05.358Z,14.00
2018-03-25T12:26:36.128Z,14.16
2018-03-25T12:29:06.907Z,14.00
2018-03-25T12:31:37.662Z,14.45
2018-03-25T12:34:08.408Z,14.87
2018-03-25T12:36:39.177Z,14.75
2018-03-25T12:39:09.920Z,15.47
2018-03-25T12:41:40.680Z,14.82
2018-03-25T12:44:11.426Z,14.73
2018-03-25T12:46:42.176Z,15.23
2018-03-25T12:49:12.934Z,15.67
2018-03-25T12:51:43.708Z,16.05
2018-03-25T12:54:14.480Z,16.15
2018-03-25T12:56:45.245Z,16.00
2018-03-25T12:59:16.009Z,15.70
2018-03-25T13:01:46.786Z,15.69
2018-03-25T13:04:17.537Z,16.35
2018-03-25T13:06:48.388Z,16.31
2018-03-25T13:09:19.264Z,16.24
2018-03-25T13:11:50.049Z,15.67
2018-03-25T13:14:20.810Z,15.58
2018-03-25T13:16:51.562Z,15.69
2018-03-25T13:19:22.312Z,16.44
2018-03-25T13:21:53.090Z,16.11
2018-03-25T13:24:23.837Z,16.14
2018-03-25T13:26:54.616Z,17.59
2018-03-25T13:29:25.379Z,18.61
2018-03-25T13:31:57.156Z,19.51
2018-03-25T13:34:27.933Z,20.26
2018-03-25T13:36:58.697Z,18.91
2018-03-25T13:39:29.449Z,18.83
2018-03-25T13:42:01.336Z,18.00
2018-03-25T13:44:32.102Z,20.01
2018-03-25T13:47:02.863Z,21.13
2018-03-25T13:49:33.638Z,20.87
2018-03-25T13:52:04.433Z,20.43
2018-03-25T13:54:35.184Z,19.84
2018-03-25T13:57:05.975Z,22.36
2018-03-25T13:59:36.724Z,20.19
2018-03-25T14:02:07.554Z,20.28
2018-03-25T14:04:38.296Z,20.76
2018-03-25T14:07:09.246Z,21.83
2018-03-25T14:09:39.996Z,22.70
2018-03-25T14:12:10.769Z,21.96
2018-03-25T14:14:41.530Z,22.80
2018-03-25T14:17:12.309Z,21.72
2018-03-25T14:19:43.069Z,22.83
2018-03-25T14:22:13.842Z,22.60
2018-03-25T14:24:44.656Z,21.63
2018-03-25T14:27:15.479Z,22.22
2018-03-25T14:29:46.301Z,21.30
2018-03-25T14:32:17.866Z,20.67
2018-03-25T14:34:48.754Z,20.37
2018-03-25T14:37:19.525Z,20.30
2018-03-25T14:39:50.297Z,21.84
2018-03-25T14:42:21.088Z,22.53
2018-03-25T14:44:51.882Z,22.27
2018-03-25T14:47:22.661Z,21.37
2018-03-25T14:49:53.425Z,23.33
2018-03-25T14:52:24.223Z,21.01
2018-03-25T14:54:55.090Z,20.57
2018-03-25T14:57:25.880Z,21.47
2018-03-25T14:59:56.650Z,21.74
2018-03-25T15:02:27.453Z,22.81
2018-03-25T15:04:58.261Z,23.05
2018-03-25T15:07:29.027Z,22.77
2018-03-25T15:09:59.797Z,22.19
2018-03-25T15:12:30.626Z,22.73
2018-03-25T15:15:01.411Z,23.19
2018-03-25T15:17:32.188Z,21.62
2018-03-25T15:20:02.966Z,19.80
2018-03-25T15:22:33.751Z,21.04
2018-03-25T15:25:04.857Z,21.28
2018-03-25T15:27:35.718Z,19.59
2018-03-25T15:30:06.481Z,19.28
2018-03-25T15:32:37.266Z,18.06
2018-03-25T15:35:08.031Z,17.04
2018-03-25T15:37:38.809Z,16.61
2018-03-25T15:40:09.581Z,15.96
2018-03-25T15:42:40.385Z,15.94
2018-03-25T15:45:11.196Z,15.13
2018-03-25T15:47:41.948Z,14.41
2018-03-25T15:50:12.725Z,14.45
2018-03-25T15:52:43.828Z,14.53
2018-03-25T15:55:14.600Z,14.29
2018-03-25T15:57:45.389Z,13.75
2018-03-25T16:00:16.166Z,13.93
2018-03-25T16:02:46.954Z,13.73
2018-03-25T16:05:17.720Z,13.45
2018-03-25T16:07:48.524Z,13.51
2018-03-25T16:10:19.283Z,13.36
2018-03-25T16:12:50.052Z,13.15
2018-03-25T16:15:20.813Z,13.08
2018-03-25T16:17:51.686Z,13.17
2018-03-25T16:20:22.455Z,12.96
2018-03-25T16:22:53.284Z,13.00
2018-03-25T16:25:24.162Z,12.93
2018-03-25T16:27:54.954Z,12.78
2018-03-25T16:30:25.732Z,12.63
2018-03-25T16:32:56.537Z,12.48
2018-03-25T16:35:27.298Z,12.26
2018-03-25T16:37:58.082Z,12.16
2018-03-25T16:40:28.824Z,12.17
2018-03-25T16:42:59.618Z,12.13
2018-03-25T16:45:30.385Z,12.02
2018-03-25T16:48:01.174Z,11.84
2018-03-25T16:50:31.920Z,11.66
2018-03-25T16:53:02.698Z,11.51
2018-03-25T16:55:33.436Z,11.38
2018-03-25T16:58:04.208Z,11.33
2018-03-25T17:00:34.953Z,11.24
2018-03-25T17:03:05.724Z,11.00
2018-03-25T17:05:36.461Z,10.86
2018-03-25T17:08:07.235Z,10.73
2018-03-25T17:10:37.986Z,10.40
2018-03-25T17:13:08.735Z,10.18
2018-03-25T17:15:39.492Z,10.02
2018-03-25T17:18:10.249Z,9.99
2018-03-25T17:20:41.506Z,9.99
2018-03-25T17:23:12.279Z,10.02
2018-03-25T17:25:43.048Z,9.96
2018-03-25T17:28:13.818Z,9.81
2018-03-25T17:30:44.588Z,9.60
2018-03-25T17:33:15.353Z,9.56
2018-03-25T17:35:46.100Z,9.62
2018-03-25T17:38:16.865Z,9.47
2018-03-25T17:40:48.709Z,9.38
2018-03-25T17:43:19.477Z,9.35
2018-03-25T17:45:50.234Z,9.22
2018-03-25T17:48:21.957Z,9.14
2018-03-25T17:50:52.740Z,8.91
2018-03-25T17:53:23.605Z,8.73
2018-03-25T17:55:54.434Z,8.58
2018-03-25T17:58:26.207Z,8.51
2018-03-25T18:00:56.966Z,8.33
2018-03-25T18:03:27.726Z,8.22
2018-03-25T18:05:58.461Z,7.91
2018-03-25T18:08:29.237Z,7.66
2018-03-25T18:10:59.980Z,7.54
2018-03-25T18:13:30.742Z,7.47
2018-03-25T18:16:01.518Z,7.63
2018-03-25T18:18:32.377Z,7.68
2018-03-25T18:21:04.152Z,7.50
2018-03-25T18:23:34.913Z,7.19
2018-03-25T18:26:05.659Z,7.25
2018-03-25T18:28:36.417Z,7.07
2018-03-25T18:31:09.237Z,6.92
2018-03-25T18:33:40.021Z,6.69
2018-03-25T18:36:10.774Z,6.60
2018-03-25T18:38:41.526Z,6.56
2018-03-25T18:41:12.948Z,6.45
2018-03-25T18:43:43.699Z,6.18
2018-03-25T18:46:14.440Z,6.14
2018-03-25T18:48:47.797Z,6.16
2018-03-25T18:51:18.557Z,6.01
2018-03-25T18:53:49.319Z,6.01
2018-03-25T18:56:20.069Z,5.99
2018-03-25T18:58:50.824Z,5.92
2018-03-25T19:01:21.560Z,6.02
2018-03-25T19:03:52.324Z,6.20
2018-03-25T19:06:23.056Z,6.34
2018-03-25T19:08:53.800Z,6.31
2018-03-25T19:11:24.561Z,6.42
2018-03-25T19:13:55.308Z,6.36
2018-03-25T19:16:26.040Z,6.40
2018-03-25T19:18:56.807Z,6.31
2018-03-25T19:21:27.537Z,6.27
2018-03-25T19:23:58.302Z,6.21
2018-03-25T19:26:29.038Z,6.18
2018-03-25T19:28:59.798Z,6.15
2018-03-25T19:31:30.545Z,6.17
2018-03-25T19:34:01.321Z,5.94
2018-03-25T19:36:32.066Z,5.84
2018-03-25T19:39:02.890Z,5.69
2018-03-25T19:41:33.629Z,5.68
2018-03-25T19:44:04.399Z,5.54
2018-03-25T19:46:35.161Z,5.44
2018-03-25T19:49:05.910Z,5.31
2018-03-25T19:51:36.676Z,5.22
2018-03-25T19:54:07.464Z,5.04
2018-03-25T19:56:39.225Z,5.05
2018-03-25T19:59:10.025Z,5.08
2018-03-25T20:01:40.797Z,5.11
2018-03-25T20:04:11.568Z,5.20
2018-03-25T20:06:42.383Z,5.26
2018-03-25T20:09:13.197Z,5.16
2018-03-25T20:11:43.962Z,5.06
2018-03-25T20:14:14.726Z,5.01
2018-03-25T20:16:45.485Z,4.87
2018-03-25T20:19:16.294Z,4.70
2018-03-25T20:21:47.060Z,4.55
2018-03-25T20:24:17.839Z,4.39
2018-03-25T20:26:48.609Z,4.22
2018-03-25T20:29:19.401Z,4.45
2018-03-25T20:31:50.152Z,4.74
2018-03-25T20:34:20.930Z,4.50
2018-03-25T20:36:51.681Z,4.30
2018-03-25T20:39:22.457Z,4.21
2018-03-25T20:41:53.212Z,4.07
2018-03-25T20:44:23.980Z,4.35
2018-03-25T20:46:54.738Z,4.51
2018-03-25T20:49:31.579Z,4.35
2018-03-25T20:52:03.932Z,4.35
2018-03-25T20:54:34.705Z,4.25
2018-03-25T20:57:05.466Z,4.12
2018-03-25T20:59:36.480Z,4.08
2018-03-25T21:02:07.212Z,4.07
2018-03-25T21:04:37.970Z,4.07
2018-03-25T21:07:09.840Z,4.06
2018-03-25T21:09:40.604Z,3.96
2018-03-25T21:12:11.341Z,3.89
2018-03-25T21:14:42.098Z,3.77
2018-03-25T21:17:12.861Z,3.71
2018-03-25T21:19:43.626Z,3.70
2018-03-25T21:22:14.377Z,3.72
2018-03-25T21:24:45.300Z,3.61
2018-03-25T21:27:16.057Z,3.37
2018-03-25T21:29:46.889Z,3.37
2018-03-25T21:32:17.663Z,3.36
2018-03-25T21:34:49.525Z,3.29
2018-03-25T21:37:20.476Z,3.29
2018-03-25T21:39:51.233Z,3.34
2018-03-25T21:42:21.966Z,3.23
2018-03-25T21:44:52.716Z,3.17
2018-03-25T21:47:23.457Z,3.24
2018-03-25T21:49:54.212Z,3.15
2018-03-25T21:52:24.965Z,3.06
2018-03-25T21:54:55.730Z,3.01
2018-03-25T21:57:26.477Z,2.94
2018-03-25T21:59:57.263Z,2.80
2018-03-25T22:02:28.001Z,2.64
2018-03-25T22:04:58.762Z,2.52
2018-03-25T22:07:30.548Z,2.58
2018-03-25T22:10:01.319Z,2.67
2018-03-25T22:12:32.058Z,2.66
2018-03-25T22:15:02.851Z,2.58
2018-03-25T22:17:33.585Z,2.47
2018-03-25T22:20:04.374Z,2.49
2018-03-25T22:22:35.113Z,2.39
2018-03-25T22:25:05.884Z,2.33
2018-03-25T22:27:36.620Z,2.44
2018-03-25T22:30:07.361Z,2.59
2018-03-25T22:32:38.125Z,2.62
2018-03-25T22:35:08.889Z,2.55
2018-03-25T22:37:39.674Z,2.54
2018-03-25T22:40:10.609Z,2.49
2018-03-25T22:42:41.529Z,2.41
2018-03-25T22:45:12.366Z,2.32
2018-03-25T22:47:43.114Z,2.21
2018-03-25T22:50:13.876Z,2.18
2018-03-25T22:52:44.627Z,2.08
2018-03-25T22:55:15.389Z,2.03
2018-03-25T22:57:46.144Z,2.02
2018-03-25T23:00:16.914Z,1.99
2018-03-25T23:02:47.665Z,1.99
2018-03-25T23:05:18.484Z,1.98
2018-03-25T23:07:49.232Z,1.92
2018-03-25T23:10:20.045Z,1.97
2018-03-25T23:12:50.804Z,1.90
2018-03-25T23:15:21.576Z,1.86
2018-03-25T23:17:52.315Z,1.81
2018-03-25T23:20:23.082Z,1.76
2018-03-25T23:22:53.833Z,1.69
2018-03-25T23:25:24.576Z,1.66
2018-03-25T23:27:55.309Z,1.72
2018-03-25T23:30:26.070Z,1.69
2018-03-25T23:32:56.833Z,1.70
2018-03-25T23:35:27.585Z,1.69
2018-03-25T23:37:58.328Z,1.69
2018-03-25T23:40:29.094Z,1.67
2018-03-25T23:42:59.820Z,1.54
2018-03-25T23:45:30.590Z,1.48
2018-03-25T23:48:01.321Z,1.41
2018-03-25T23:50:32.122Z,1.39
2018-03-25T23:53:02.879Z,1.36
2018-03-25T23:55:33.673Z,1.36
2018-03-25T23:58:04.562Z,1.26
